Cairns AAF (Fort Rucker) Air Field
KOZR : now visible

Airfield :











YOU CAN JOIN US ON...

 
LOGIN :

Register | Disclaimer

   EN    FR    IT 

 









Legend :    VFR   Marginal VFR   IFR   Intensive IFR   Very Intensive IFR
Visi :
Ceiling :
>= 8 km
>= 3000ft
5 to 8 km
1000 to 3000 ft
1500m to 5 km
500 to 1000 ft
800 to 1500m
200 to 500 ft
< 800m
< 200 ft
Symbols :   Thunderstorms  Fog  Heavy snow  Heavy precipitations  Wind > 20 kt






- Airport Elevation : 301 ft


KOZR - Cairns AAF (Fort Rucker) Air Field

CURRENT METAR :
  • 150756Z AUTO 00000KT 10SM CLR 06/05 A3000 RMK AO2 SLP162 T00580054

EXPIRED METARs :
  • 150716Z AUTO 00000KT 10SM CLR 06/06 A2998 RMK AO2 SLP155
  • 150656Z AUTO 00000KT 7SM CLR 06/06 A2999 RMK AO2 SLP158 T00630059
  • 150636Z AUTO 00000KT 7/8SM R06/3500V5500FT BR CLR 06/05 A2999 RMK AO2 VIS 7/8V6 SLP158
  • 150616Z AUTO 00000KT 7SM CLR 06/06 A2998 RMK AO2 SLP155
  • 150606Z AUTO 00000KT 1 1/8SM R06/6000FT BR CLR 07/06 A2997 RMK AO2 VIS 5/8V1 1/8 SLP152
  • 150546Z AUTO 00000KT 2SM BR CLR 07/07 A2998 RMK AO2 VIS 2V3 SLP155

Expired Forecast.



MET'MAP, your aeronautical weather chart ! - Copyright ORBIFLY December 2007 - Disclaimer

ORBIFLY MET'MAP TEAM :

Programming & Development : Alexandra Zaïnal
Concept & original design : Baudouin d'Aumeries
Assistance for programming : Marc-Olivier Méhu
Technical & hardware support : Manuel Goepfert

Contact : metmap@orbifly.com




SOURCES & CREDITS :

   NOAA       Earth
Advisory